ENFL/FRO METAR and TAF weather

Enter ICAO airport designator
Station Type Date Time Source
ENFL METAR 2022/01/29 11:20 UTC NOAA

ENFL 291120Z AUTO 32021KT 4300NDV -RA FEW009/// BKN010/// OVC023/// 05/05 Q0977


Station Type Date Time Source
ENFL Decoded METAR 2022/01/29 11:20 UTC NOAA

Floro, Norway (ENFL) 61-35N 005-02E 9M
Jan 29, 2022 - 06:20 AM EST / 2022.01.29 1120 UTC
Wind: from the NW (320 degrees) at 24 MPH (21 KT):0
Sky conditions: overcast
Weather: light rain
Temperature: 41 F (5 C)
Dew Point: 41 F (5 C)
Relative Humidity: 100%
Pressure (altimeter): 28.85 in. Hg (0977 hPa)
ob: ENFL 291120Z AUTO 32021KT 4300NDV -RA FEW009/// BKN010/// OVC023/// 05/05 Q0977
cycle: 11

Station Type Date Time Source
ENFL TAF 2010/02/05 07:50 UTC NOAA

METAR ENFL 050750Z 16019KT 140V200 9999 FEW015 SCT030 BKN055 03/M03 Q1011

Example: see airport list